Observations for SYDNEY INTL AIRPORT, Australia (YSSY)

YSSY 192000Z 25010KT 9999 FEW025 14/02 Q1021 NOSIG  
YSSY 191930Z 25012KT 9999 FEW025 13/02 Q1020 NOSIG  
YSSY 191900Z 25010KT 9999 FEW030 13/03 Q1020 NOSIG  
YSSY 191830Z 25013KT 9999 FEW030 13/02 Q1020 NOSIG  
YSSY 191800Z 25010KT 9999 FEW040 14/03 Q1019 NOSIG  
YSSY 191730Z 24009KT 9999 FEW030 13/04 Q1019 NOSIG  
YSSY 191700Z 23011KT 9999 FEW028 14/06 Q1019 NOSIG  
YSSY 191630Z 23011KT 9999 FEW025 14/08 Q1019 NOSIG  
YSSY 191600Z 23009KT 9999 FEW025 14/09 Q1019 NOSIG  
YSSY 191530Z 23009KT 9999 FEW025 14/10 Q1019 NOSIG  
YSSY 191500Z 22010KT 9999 FEW025 15/12 Q1019 NOSIG  
YSSY 191430Z 21009KT 9999 FEW020 15/12 Q1019 NOSIG  
YSSY 191400Z 21011KT 9999 FEW020 16/12 Q1019 NOSIG  
YSSY 191330Z 20012KT 9999 FEW020 16/12 Q1020 NOSIG  
YSSY 191300Z 20012KT 9999 FEW020 16/12 Q1019 NOSIG  
YSSY 191230Z 20013KT 9999 FEW020 16/13 Q1019 NOSIG  
YSSY 191200Z 21015KT 9999 FEW020 16/12 Q1019 NOSIG  
YSSY 191130Z 20015KT 9999 FEW020 17/12 Q1018 NOSIG  
YSSY 191100Z 20017KT 9999 FEW020 17/13 Q1018 NOSIG  
YSSY 191030Z 19019KT 9999 FEW020 17/13 Q1017 FM1200 21014KT 9999 FEW020 
YSSY 191000Z 19021KT 9999 FEW018 18/13 Q1016 FM1200 21014KT CAVOK FM1000 MOD TURB BLW 5000FT TL1030 
YSSY 190935Z 19018G28KT CAVOK 19/12 Q1015
YSSY 190935Z 19018G28KT CAVOK 19/12 Q1015 FM1200 21014KT CAVOK FM0935 MOD TURB BLW 5000FT TL1030
YSSY 190900Z 24015KT CAVOK 21/07 Q1015 FM0900 23015G25KT CAVOK FM0900 MOD TURB BLW 5000FT TL1030
YSSY 190830Z 28015KT CAVOK 23/03 Q1014 FM0900 23015G25KT CAVOK FM0830 MOD TURB BLW 5000FT TL1030
YSSY 190800Z 27017KT CAVOK 23/03 Q1013 FM0900 23015G25KT CAVOK FM0800 MOD TURB BLW 5000FT TL1030
YSSY 190730Z 27017KT CAVOK 23/02 Q1013 FM0900 23015G25KT CAVOK FM0730 MOD TURB BLW 5000FT   
YSSY 190700Z 27020KT 9999 VCSH NSC 24/01 Q1012 FM0900 23015G25KT CAVOK FM0700 MOD TURB BLW 5000FT   
YSSY 190630Z 26023KT 9999 VCSH NSC 24/01 Q1011 FM0630 MOD TURB BLW 5000FT   
YSSY 190630Z 26023KT 9999 VCSH NSC 24/01 Q1011
YSSY 190630Z 26023KT 9999 VCSH NSC 24/01 Q1011 FM0630 MOD TURB BLW 5000FT
YSSY 190620Z 28037KT 9999 VCSH NSC 25/01 Q1011
YSSY 190621Z 28035G46KT 9999 VCSH NSC 24/00 Q1011
YSSY 190620Z 28037KT 9999 VCSH NSC 25/01 Q1011 FM0620 MOD TURB BLW 5000FT
YSSY 190604Z 27024G38KT CAVOK 26/M01 Q1010
YSSY 190552Z 28024KT CAVOK 26/M00 Q1010
YSSY 190604Z 27024G38KT CAVOK 26/M01 Q1010 FM0604 MOD TURB BLW 5000FT
YSSY 190600Z 27024KT CAVOK 26/M01 Q1010 FM0600 MOD TURB BLW 5000FT  
YSSY 190530Z 24025G35KT 9999 VCSH NSC 26/M01 Q1010 FM0530 MOD TURB BLW 5000FT   
YSSY 190530Z 24025G35KT 9999 VCSH NSC 26/M01 Q1010
YSSY 190530Z 24025G35KT 9999 VCSH NSC 26/M01 Q1010 FM0530 MOD TURB BLW 5000FT
YSSY 190522Z 24027KT 9999 VCSH NSC 26/M01 Q1010
YSSY 190522Z 24027KT 9999 VCSH NSC 26/M01 Q1010 FM0522 MOD TURB BLW 5000FT
YSSY 190500Z 28020G32KT CAVOK 27/M03 Q1009
YSSY 190500Z 28020G32KT CAVOK 27/M03 Q1009 FM0500 MOD TURB BLW 5000FT
YSSY 190552Z 28024KT CAVOK 26/M00 Q1010
YSSY 190552Z 28024KT CAVOK 26/M00 Q1010 FM0552 MOD TURB BLW 5000FT
YSSY 190500Z 28020G32KT CAVOK 27/M03 Q1009  
YSSY 190430Z 27022KT CAVOK 28/M02 Q1009 FM0430 MOD TURB BLW 5000FT  
YSSY 190423Z 27023KT CAVOK 28/M03 Q1009
YSSY 190423Z 27023KT CAVOK 28/M03 Q1009 FM0423 MOD TURB BLW 5000FT
YSSY 190400Z 30020G30KT CAVOK 29/M02 Q1010
YSSY 190400Z 30020G30KT CAVOK 29/M02 Q1010 FM0400 26020G30KT CAVOK FM0400 MOD TURB BLW 5000FT
YSSY 190448Z 28020G30KT CAVOK 28/M03 Q1009
YSSY 190448Z 28020G30KT CAVOK 28/M03 Q1009 FM0448 MOD TURB BLW 5000FT
YSSY 190400Z 30020G30KT CAVOK 29/M02 Q1010  
YSSY 190330Z 30020G31KT CAVOK 28/M03 Q1010 FM0330 26020G30KT CAVOK FM0330 MOD TURB BLW 5000FT   
YSSY 190330Z 30020G31KT CAVOK 28/M03 Q1010
YSSY 190330Z 30020G31KT CAVOK 28/M03 Q1010 FM0330 26020G30KT CAVOK FM0330 MOD TURB BLW 5000FT
YSSY 190300Z 29017G28KT CAVOK 27/M03 Q1010  
YSSY 190300Z 29017G28KT CAVOK 27/M03 Q1010
YSSY 190300Z 29017G28KT CAVOK 27/M03 Q1010 FM0300 26020G30KT CAVOK FM0300 MOD TURB BLW 5000FT
YSSY 190234Z 28020G30KT CAVOK 28/M02 Q1010
YSSY 190234Z 28020G30KT CAVOK 28/M02 Q1010 FM0300 26020G30KT CAVOK FM0234 MOD TURB BLW 5000FT
YSSY 190217Z 28015G26KT CAVOK 28/M01 Q1011
YSSY 190217Z 28015G26KT CAVOK 28/M01 Q1011 FM0300 26020G30KT CAVOK FM0217 MOD TURB BLW 5000FT
YSSY 190200Z 30015KT CAVOK 28/M01 Q1011 FM0300 26020G30KT CAVOK FM0200 MOD TURB BLW 5000FT  
YSSY 190130Z 33011KT CAVOK 28/01 Q1011 FM0300 26020G30KT CAVOK FM0100 MOD TURB BLW 5000FT   
YSSY 190145Z 31015G28KT CAVOK 28/M00 Q1011
YSSY 190145Z 31015G28KT CAVOK 28/M00 Q1011 FM0300 26020G30KT CAVOK FM0145 MOD TURB BLW 5000FT
YSSY 190100Z 33014KT 290V350 CAVOK 28/01 Q1012 FM0100 MOD TURB BLW 5000FT   
YSSY 190030Z 29018KT CAVOK 27/M00 Q1013 FM0030 MOD TURB BLW 5000FT  
YSSY 190000Z 34012KT 300V360 CAVOK 25/M01 Q1013 FM0000 MOD TURB BLW 5000FT  
YSSY 182330Z 33010KT CAVOK 25/M02 Q1014 FM0000 MOD TURB BLW 5000FT  
YSSY 182300Z 33011KT CAVOK 24/M04 Q1014 FM0000 MOD TURB BLW 5000FT  
YSSY 182230Z 33012KT CAVOK 23/M04 Q1015 FM0000 MOD TURB BLW 5000FT  
YSSY 182200Z 32011KT CAVOK 22/M01 Q1015 FM0000 MOD TURB BLW 5000FT  
YSSY 182130Z 33008KT CAVOK 19/01 Q1015 NOSIG
YSSY 182100Z 32009KT CAVOK 19/01 Q1015 NOSIG
YSSY 182030Z 32009KT CAVOK 16/02 Q1014 NOSIG
YSSY 182000Z 30008KT CAVOK 15/04 Q1014 NOSIG
YSSY 181930Z 31005KT CAVOK 14/07 Q1014 NOSIG